sensor_id;sensor_type;location;lat;lon;timestamp;P1;durP1;ratioP1;P2;durP2;ratioP2
62990;SDS011;49084;48.204;16.202;2022-07-10T00:00:27;3.22;;;2.92;;
62990;SDS011;49084;48.204;16.202;2022-07-10T00:02:54;3.30;;;3.10;;
62990;SDS011;49084;48.204;16.202;2022-07-10T00:05:20;4.28;;;3.00;;
62990;SDS011;49084;48.204;16.202;2022-07-10T00:07:47;3.83;;;3.53;;
62990;SDS011;49084;48.204;16.202;2022-07-10T00:10:13;3.60;;;3.30;;
62990;SDS011;49084;48.204;16.202;2022-07-10T00:12:39;5.22;;;3.35;;
62990;SDS011;49084;48.204;16.202;2022-07-10T00:15:05;6.50;;;3.85;;
62990;SDS011;49084;48.204;16.202;2022-07-10T00:17:32;3.72;;;3.42;;
62990;SDS011;49084;48.204;16.202;2022-07-10T00:19:58;5.43;;;3.50;;
62990;SDS011;49084;48.204;16.202;2022-07-10T00:22:24;5.85;;;3.90;;
62990;SDS011;49084;48.204;16.202;2022-07-10T00:24:50;6.47;;;4.18;;
62990;SDS011;49084;48.204;16.202;2022-07-10T00:27:16;3.80;;;3.40;;
62990;SDS011;49084;48.204;16.202;2022-07-10T00:29:42;8.35;;;3.80;;
62990;SDS011;49084;48.204;16.202;2022-07-10T00:32:08;7.13;;;3.80;;
62990;SDS011;49084;48.204;16.202;2022-07-10T00:34:34;5.10;;;3.67;;
62990;SDS011;49084;48.204;16.202;2022-07-10T00:37:00;4.78;;;3.92;;
62990;SDS011;49084;48.204;16.202;2022-07-10T00:39:26;6.00;;;4.13;;
62990;SDS011;49084;48.204;16.202;2022-07-10T00:41:52;4.22;;;3.80;;
62990;SDS011;49084;48.204;16.202;2022-07-10T00:44:18;5.55;;;3.70;;
62990;SDS011;49084;48.204;16.202;2022-07-10T00:46:43;8.05;;;3.65;;
62990;SDS011;49084;48.204;16.202;2022-07-10T00:49:09;4.30;;;3.97;;
62990;SDS011;49084;48.204;16.202;2022-07-10T00:51:34;4.38;;;4.00;;
62990;SDS011;49084;48.204;16.202;2022-07-10T00:54:01;4.10;;;3.65;;
62990;SDS011;49084;48.204;16.202;2022-07-10T00:56:27;4.25;;;3.88;;
62990;SDS011;49084;48.204;16.202;2022-07-10T00:58:53;5.07;;;3.38;;
62990;SDS011;49084;48.204;16.202;2022-07-10T01:01:19;7.63;;;3.80;;
62990;SDS011;49084;48.204;16.202;2022-07-10T01:03:47;5.43;;;3.40;;
62990;SDS011;49084;48.204;16.202;2022-07-10T01:06:13;5.90;;;3.85;;
62990;SDS011;49084;48.204;16.202;2022-07-10T01:08:39;4.13;;;3.75;;
62990;SDS011;49084;48.204;16.202;2022-07-10T01:11:05;4.97;;;3.58;;
62990;SDS011;49084;48.204;16.202;2022-07-10T01:13:31;3.83;;;3.40;;
62990;SDS011;49084;48.204;16.202;2022-07-10T01:15:57;4.18;;;3.45;;
62990;SDS011;49084;48.204;16.202;2022-07-10T01:18:23;3.67;;;3.38;;
62990;SDS011;49084;48.204;16.202;2022-07-10T01:20:51;6.47;;;3.53;;
62990;SDS011;49084;48.204;16.202;2022-07-10T01:23:18;3.78;;;3.20;;
62990;SDS011;49084;48.204;16.202;2022-07-10T01:25:43;5.00;;;3.20;;
62990;SDS011;49084;48.204;16.202;2022-07-10T01:28:09;4.35;;;3.30;;
62990;SDS011;49084;48.204;16.202;2022-07-10T01:30:35;4.18;;;3.50;;
62990;SDS011;49084;48.204;16.202;2022-07-10T01:33:00;3.67;;;3.10;;
62990;SDS011;49084;48.204;16.202;2022-07-10T01:35:26;4.30;;;3.22;;
62990;SDS011;49084;48.204;16.202;2022-07-10T01:37:52;5.40;;;3.20;;
62990;SDS011;49084;48.204;16.202;2022-07-10T01:40:17;3.78;;;3.13;;
62990;SDS011;49084;48.204;16.202;2022-07-10T01:42:43;7.80;;;3.20;;
62990;SDS011;49084;48.204;16.202;2022-07-10T01:45:10;3.72;;;3.33;;
62990;SDS011;49084;48.204;16.202;2022-07-10T01:47:36;5.43;;;3.72;;
62990;SDS011;49084;48.204;16.202;2022-07-10T01:50:02;3.67;;;3.22;;
62990;SDS011;49084;48.204;16.202;2022-07-10T01:52:28;5.47;;;3.60;;
62990;SDS011;49084;48.204;16.202;2022-07-10T01:54:54;4.50;;;3.70;;
62990;SDS011;49084;48.204;16.202;2022-07-10T01:57:20;3.65;;;3.35;;
62990;SDS011;49084;48.204;16.202;2022-07-10T01:59:45;3.85;;;3.55;;
62990;SDS011;49084;48.204;16.202;2022-07-10T02:02:11;7.68;;;4.32;;
62990;SDS011;49084;48.204;16.202;2022-07-10T02:04:37;5.57;;;3.60;;
62990;SDS011;49084;48.204;16.202;2022-07-10T02:07:09;5.50;;;3.25;;
62990;SDS011;49084;48.204;16.202;2022-07-10T02:09:37;5.07;;;3.47;;
62990;SDS011;49084;48.204;16.202;2022-07-10T02:12:04;4.90;;;3.60;;
62990;SDS011;49084;48.204;16.202;2022-07-10T02:14:30;4.97;;;3.53;;
62990;SDS011;49084;48.204;16.202;2022-07-10T02:16:56;6.18;;;3.70;;
62990;SDS011;49084;48.204;16.202;2022-07-10T02:19:22;4.15;;;3.58;;
62990;SDS011;49084;48.204;16.202;2022-07-10T02:21:47;10.02;;;4.13;;
62990;SDS011;49084;48.204;16.202;2022-07-10T02:24:13;4.25;;;3.78;;
62990;SDS011;49084;48.204;16.202;2022-07-10T02:26:39;5.75;;;3.53;;
62990;SDS011;49084;48.204;16.202;2022-07-10T02:29:04;5.70;;;3.65;;
62990;SDS011;49084;48.204;16.202;2022-07-10T02:31:30;4.18;;;3.78;;
62990;SDS011;49084;48.204;16.202;2022-07-10T02:33:57;7.25;;;3.90;;
62990;SDS011;49084;48.204;16.202;2022-07-10T02:36:22;7.03;;;4.07;;
62990;SDS011;49084;48.204;16.202;2022-07-10T02:38:48;4.50;;;4.10;;
62990;SDS011;49084;48.204;16.202;2022-07-10T02:41:14;4.75;;;3.53;;
62990;SDS011;49084;48.204;16.202;2022-07-10T02:43:39;4.53;;;4.13;;
62990;SDS011;49084;48.204;16.202;2022-07-10T02:46:05;4.65;;;4.25;;
62990;SDS011;49084;48.204;16.202;2022-07-10T02:48:30;5.32;;;3.85;;
62990;SDS011;49084;48.204;16.202;2022-07-10T02:50:56;3.88;;;3.55;;
62990;SDS011;49084;48.204;16.202;2022-07-10T02:53:22;5.82;;;3.95;;
62990;SDS011;49084;48.204;16.202;2022-07-10T02:55:47;4.30;;;3.95;;
62990;SDS011;49084;48.204;16.202;2022-07-10T02:58:13;5.15;;;3.80;;
62990;SDS011;49084;48.204;16.202;2022-07-10T03:00:40;4.22;;;3.90;;
62990;SDS011;49084;48.204;16.202;2022-07-10T03:03:06;3.90;;;3.50;;
62990;SDS011;49084;48.204;16.202;2022-07-10T03:05:32;5.68;;;4.53;;
62990;SDS011;49084;48.204;16.202;2022-07-10T03:07:58;4.20;;;3.20;;
62990;SDS011;49084;48.204;16.202;2022-07-10T03:10:24;5.65;;;3.55;;
62990;SDS011;49084;48.204;16.202;2022-07-10T03:12:50;3.88;;;3.58;;
62990;SDS011;49084;48.204;16.202;2022-07-10T03:15:15;5.43;;;3.50;;
62990;SDS011;49084;48.204;16.202;2022-07-10T03:17:41;5.55;;;3.63;;
62990;SDS011;49084;48.204;16.202;2022-07-10T03:20:07;3.53;;;3.10;;
62990;SDS011;49084;48.204;16.202;2022-07-10T03:22:33;6.43;;;3.35;;
62990;SDS011;49084;48.204;16.202;2022-07-10T03:24:59;6.10;;;3.40;;
62990;SDS011;49084;48.204;16.202;2022-07-10T03:27:25;3.72;;;3.22;;
62990;SDS011;49084;48.204;16.202;2022-07-10T03:29:50;4.63;;;3.38;;
62990;SDS011;49084;48.204;16.202;2022-07-10T03:32:16;5.53;;;3.53;;
62990;SDS011;49084;48.204;16.202;2022-07-10T03:34:42;4.20;;;3.67;;
62990;SDS011;49084;48.204;16.202;2022-07-10T03:37:07;3.83;;;3.15;;
62990;SDS011;49084;48.204;16.202;2022-07-10T03:39:33;7.97;;;3.92;;
62990;SDS011;49084;48.204;16.202;2022-07-10T03:41:59;5.60;;;3.50;;
62990;SDS011;49084;48.204;16.202;2022-07-10T03:44:24;5.00;;;4.13;;
62990;SDS011;49084;48.204;16.202;2022-07-10T03:46:50;3.50;;;3.20;;
62990;SDS011;49084;48.204;16.202;2022-07-10T03:49:15;4.63;;;3.28;;
62990;SDS011;49084;48.204;16.202;2022-07-10T03:51:41;5.50;;;3.50;;
62990;SDS011;49084;48.204;16.202;2022-07-10T03:54:07;5.70;;;3.00;;
62990;SDS011;49084;48.204;16.202;2022-07-10T03:56:32;5.85;;;3.25;;
62990;SDS011;49084;48.204;16.202;2022-07-10T03:59:16;4.50;;;3.38;;
62990;SDS011;49084;48.204;16.202;2022-07-10T04:01:43;4.47;;;3.50;;
62990;SDS011;49084;48.204;16.202;2022-07-10T04:04:09;3.47;;;3.15;;
62990;SDS011;49084;48.204;16.202;2022-07-10T04:06:35;3.95;;;3.15;;
62990;SDS011;49084;48.204;16.202;2022-07-10T04:09:03;5.20;;;3.90;;
62990;SDS011;49084;48.204;16.202;2022-07-10T04:11:30;3.22;;;2.97;;
62990;SDS011;49084;48.204;16.202;2022-07-10T04:13:55;6.43;;;3.72;;
62990;SDS011;49084;48.204;16.202;2022-07-10T04:16:21;4.43;;;3.10;;
62990;SDS011;49084;48.204;16.202;2022-07-10T04:18:47;5.75;;;3.05;;
62990;SDS011;49084;48.204;16.202;2022-07-10T04:21:13;3.78;;;3.47;;
62990;SDS011;49084;48.204;16.202;2022-07-10T04:23:39;3.33;;;3.05;;
62990;SDS011;49084;48.204;16.202;2022-07-10T04:26:05;3.70;;;3.08;;
62990;SDS011;49084;48.204;16.202;2022-07-10T04:28:30;3.78;;;2.35;;
62990;SDS011;49084;48.204;16.202;2022-07-10T04:30:56;3.83;;;2.38;;
62990;SDS011;49084;48.204;16.202;2022-07-10T04:33:22;3.85;;;2.80;;
62990;SDS011;49084;48.204;16.202;2022-07-10T04:35:47;3.30;;;2.55;;
62990;SDS011;49084;48.204;16.202;2022-07-10T04:38:13;2.78;;;2.20;;
62990;SDS011;49084;48.204;16.202;2022-07-10T04:40:39;3.50;;;2.85;;
62990;SDS011;49084;48.204;16.202;2022-07-10T04:43:04;3.05;;;2.45;;
62990;SDS011;49084;48.204;16.202;2022-07-10T04:45:30;5.35;;;2.45;;
62990;SDS011;49084;48.204;16.202;2022-07-10T04:47:55;7.50;;;2.25;;
62990;SDS011;49084;48.204;16.202;2022-07-10T04:50:21;2.88;;;2.00;;
62990;SDS011;49084;48.204;16.202;2022-07-10T04:52:47;2.97;;;2.70;;
62990;SDS011;49084;48.204;16.202;2022-07-10T04:55:12;5.88;;;3.15;;
62990;SDS011;49084;48.204;16.202;2022-07-10T04:57:38;4.10;;;2.70;;
62990;SDS011;49084;48.204;16.202;2022-07-10T05:00:04;3.17;;;2.60;;
62990;SDS011;49084;48.204;16.202;2022-07-10T05:02:30;3.35;;;2.38;;
62990;SDS011;49084;48.204;16.202;2022-07-10T05:04:56;3.90;;;2.50;;
62990;SDS011;49084;48.204;16.202;2022-07-10T05:07:21;5.85;;;2.42;;
62990;SDS011;49084;48.204;16.202;2022-07-10T05:09:47;4.65;;;2.30;;
62990;SDS011;49084;48.204;16.202;2022-07-10T05:12:12;4.63;;;1.92;;
62990;SDS011;49084;48.204;16.202;2022-07-10T05:14:38;4.65;;;2.30;;
62990;SDS011;49084;48.204;16.202;2022-07-10T05:17:03;2.53;;;2.33;;
62990;SDS011;49084;48.204;16.202;2022-07-10T05:19:29;6.68;;;2.10;;
62990;SDS011;49084;48.204;16.202;2022-07-10T05:21:55;1.95;;;1.85;;
62990;SDS011;49084;48.204;16.202;2022-07-10T05:24:20;2.72;;;1.83;;
62990;SDS011;49084;48.204;16.202;2022-07-10T05:26:46;3.17;;;2.15;;
62990;SDS011;49084;48.204;16.202;2022-07-10T05:29:12;3.70;;;1.80;;
62990;SDS011;49084;48.204;16.202;2022-07-10T05:31:37;3.50;;;1.80;;
62990;SDS011;49084;48.204;16.202;2022-07-10T05:34:03;3.80;;;1.90;;
62990;SDS011;49084;48.204;16.202;2022-07-10T05:36:29;2.13;;;1.92;;
62990;SDS011;49084;48.204;16.202;2022-07-10T05:38:54;3.75;;;2.17;;
62990;SDS011;49084;48.204;16.202;2022-07-10T05:41:20;2.95;;;1.88;;
62990;SDS011;49084;48.204;16.202;2022-07-10T05:43:45;2.83;;;1.50;;
62990;SDS011;49084;48.204;16.202;2022-07-10T05:46:11;2.78;;;1.73;;
62990;SDS011;49084;48.204;16.202;2022-07-10T05:48:37;2.05;;;1.90;;
62990;SDS011;49084;48.204;16.202;2022-07-10T05:51:03;4.75;;;2.10;;
62990;SDS011;49084;48.204;16.202;2022-07-10T05:53:29;5.88;;;2.90;;
62990;SDS011;49084;48.204;16.202;2022-07-10T05:55:59;2.25;;;1.95;;
62990;SDS011;49084;48.204;16.202;2022-07-10T05:58:26;1.98;;;1.73;;
62990;SDS011;49084;48.204;16.202;2022-07-10T06:00:51;2.17;;;1.60;;
62990;SDS011;49084;48.204;16.202;2022-07-10T06:03:17;1.58;;;1.48;;
62990;SDS011;49084;48.204;16.202;2022-07-10T06:05:42;3.35;;;1.50;;
62990;SDS011;49084;48.204;16.202;2022-07-10T06:08:08;2.70;;;1.55;;
62990;SDS011;49084;48.204;16.202;2022-07-10T06:10:36;1.80;;;1.70;;
62990;SDS011;49084;48.204;16.202;2022-07-10T06:13:01;4.13;;;2.05;;
62990;SDS011;49084;48.204;16.202;2022-07-10T06:15:27;2.38;;;1.73;;
62990;SDS011;49084;48.204;16.202;2022-07-10T06:17:55;1.60;;;1.50;;
62990;SDS011;49084;48.204;16.202;2022-07-10T06:20:22;1.83;;;1.30;;
62990;SDS011;49084;48.204;16.202;2022-07-10T06:22:47;1.92;;;1.83;;
62990;SDS011;49084;48.204;16.202;2022-07-10T06:25:13;2.28;;;1.90;;
62990;SDS011;49084;48.204;16.202;2022-07-10T06:27:39;1.95;;;1.80;;
62990;SDS011;49084;48.204;16.202;2022-07-10T06:30:05;2.75;;;2.00;;
62990;SDS011;49084;48.204;16.202;2022-07-10T06:32:30;4.00;;;2.00;;
62990;SDS011;49084;48.204;16.202;2022-07-10T06:34:56;2.20;;;2.10;;
62990;SDS011;49084;48.204;16.202;2022-07-10T06:37:22;2.15;;;1.80;;
62990;SDS011;49084;48.204;16.202;2022-07-10T06:39:47;3.65;;;2.05;;
62990;SDS011;49084;48.204;16.202;2022-07-10T06:42:13;2.42;;;2.22;;
62990;SDS011;49084;48.204;16.202;2022-07-10T06:44:40;3.28;;;2.28;;
62990;SDS011;49084;48.204;16.202;2022-07-10T06:47:07;5.13;;;1.88;;
62990;SDS011;49084;48.204;16.202;2022-07-10T06:49:51;2.00;;;1.80;;
62990;SDS011;49084;48.204;16.202;2022-07-10T06:52:18;2.97;;;1.90;;
62990;SDS011;49084;48.204;16.202;2022-07-10T06:54:44;2.55;;;1.75;;
62990;SDS011;49084;48.204;16.202;2022-07-10T06:57:09;2.38;;;2.17;;
62990;SDS011;49084;48.204;16.202;2022-07-10T06:59:36;3.75;;;2.00;;
62990;SDS011;49084;48.204;16.202;2022-07-10T07:02:01;2.90;;;1.77;;
62990;SDS011;49084;48.204;16.202;2022-07-10T07:04:27;2.00;;;1.75;;
62990;SDS011;49084;48.204;16.202;2022-07-10T07:06:53;4.55;;;2.22;;
62990;SDS011;49084;48.204;16.202;2022-07-10T07:09:18;8.80;;;2.05;;
62990;SDS011;49084;48.204;16.202;2022-07-10T07:11:44;3.88;;;2.13;;
62990;SDS011;49084;48.204;16.202;2022-07-10T07:14:10;1.80;;;1.70;;
62990;SDS011;49084;48.204;16.202;2022-07-10T07:16:36;2.92;;;1.80;;
62990;SDS011;49084;48.204;16.202;2022-07-10T07:19:10;3.25;;;1.98;;
62990;SDS011;49084;48.204;16.202;2022-07-10T07:21:37;4.22;;;2.10;;
62990;SDS011;49084;48.204;16.202;2022-07-10T07:24:21;2.10;;;1.40;;
62990;SDS011;49084;48.204;16.202;2022-07-10T07:26:47;3.10;;;1.38;;
62990;SDS011;49084;48.204;16.202;2022-07-10T07:29:16;2.80;;;2.35;;
62990;SDS011;49084;48.204;16.202;2022-07-10T07:31:42;4.32;;;1.70;;
62990;SDS011;49084;48.204;16.202;2022-07-10T07:34:08;2.13;;;1.90;;
62990;SDS011;49084;48.204;16.202;2022-07-10T07:36:35;4.75;;;1.85;;
62990;SDS011;49084;48.204;16.202;2022-07-10T07:39:01;14.57;;;4.80;;
62990;SDS011;49084;48.204;16.202;2022-07-10T07:41:26;6.65;;;3.28;;
62990;SDS011;49084;48.204;16.202;2022-07-10T07:43:52;11.95;;;4.40;;
62990;SDS011;49084;48.204;16.202;2022-07-10T07:46:18;5.65;;;3.25;;
62990;SDS011;49084;48.204;16.202;2022-07-10T07:48:45;5.40;;;4.03;;
62990;SDS011;49084;48.204;16.202;2022-07-10T07:51:10;8.77;;;4.25;;
62990;SDS011;49084;48.204;16.202;2022-07-10T07:53:36;7.32;;;4.38;;
62990;SDS011;49084;48.204;16.202;2022-07-10T07:56:02;4.95;;;4.38;;
62990;SDS011;49084;48.204;16.202;2022-07-10T07:58:28;10.57;;;4.88;;
62990;SDS011;49084;48.204;16.202;2022-07-10T08:00:55;10.48;;;5.63;;
62990;SDS011;49084;48.204;16.202;2022-07-10T08:03:21;7.05;;;4.68;;
62990;SDS011;49084;48.204;16.202;2022-07-10T08:05:47;5.60;;;4.28;;
62990;SDS011;49084;48.204;16.202;2022-07-10T08:08:14;8.15;;;4.88;;
62990;SDS011;49084;48.204;16.202;2022-07-10T08:10:40;9.80;;;4.38;;
62990;SDS011;49084;48.204;16.202;2022-07-10T08:13:05;8.98;;;5.50;;
62990;SDS011;49084;48.204;16.202;2022-07-10T08:15:31;7.72;;;5.43;;
62990;SDS011;49084;48.204;16.202;2022-07-10T08:17:57;9.73;;;6.13;;
62990;SDS011;49084;48.204;16.202;2022-07-10T08:20:25;6.13;;;5.10;;
62990;SDS011;49084;48.204;16.202;2022-07-10T08:22:51;10.50;;;5.63;;
62990;SDS011;49084;48.204;16.202;2022-07-10T08:25:19;7.97;;;3.85;;
62990;SDS011;49084;48.204;16.202;2022-07-10T08:27:44;5.63;;;5.07;;
62990;SDS011;49084;48.204;16.202;2022-07-10T08:30:11;6.10;;;3.45;;
62990;SDS011;49084;48.204;16.202;2022-07-10T08:32:39;3.53;;;3.20;;
62990;SDS011;49084;48.204;16.202;2022-07-10T08:35:06;5.90;;;3.42;;
62990;SDS011;49084;48.204;16.202;2022-07-10T08:37:36;7.63;;;3.22;;
62990;SDS011;49084;48.204;16.202;2022-07-10T08:40:10;4.10;;;2.75;;
62990;SDS011;49084;48.204;16.202;2022-07-10T08:42:37;4.55;;;2.47;;
62990;SDS011;49084;48.204;16.202;2022-07-10T08:45:03;5.65;;;2.72;;
62990;SDS011;49084;48.204;16.202;2022-07-10T08:47:29;2.42;;;2.03;;
62990;SDS011;49084;48.204;16.202;2022-07-10T08:49:56;2.95;;;1.98;;
62990;SDS011;49084;48.204;16.202;2022-07-10T08:52:26;4.05;;;1.95;;
62990;SDS011;49084;48.204;16.202;2022-07-10T08:54:56;3.17;;;1.60;;
62990;SDS011;49084;48.204;16.202;2022-07-10T08:57:22;4.45;;;1.67;;
62990;SDS011;49084;48.204;16.202;2022-07-10T08:59:49;2.22;;;1.48;;
62990;SDS011;49084;48.204;16.202;2022-07-10T09:02:14;5.40;;;1.95;;
62990;SDS011;49084;48.204;16.202;2022-07-10T09:04:40;3.42;;;1.30;;
62990;SDS011;49084;48.204;16.202;2022-07-10T09:07:06;3.15;;;1.50;;
62990;SDS011;49084;48.204;16.202;2022-07-10T09:09:36;1.92;;;1.20;;
62990;SDS011;49084;48.204;16.202;2022-07-10T09:12:23;1.65;;;1.27;;
62990;SDS011;49084;48.204;16.202;2022-07-10T09:14:49;3.53;;;1.10;;
62990;SDS011;49084;48.204;16.202;2022-07-10T09:17:16;2.67;;;0.85;;
62990;SDS011;49084;48.204;16.202;2022-07-10T09:19:43;2.78;;;0.98;;
62990;SDS011;49084;48.204;16.202;2022-07-10T09:22:09;3.63;;;1.00;;
62990;SDS011;49084;48.204;16.202;2022-07-10T09:24:40;2.63;;;0.90;;
62990;SDS011;49084;48.204;16.202;2022-07-10T09:27:09;3.72;;;1.10;;
62990;SDS011;49084;48.204;16.202;2022-07-10T09:29:51;5.13;;;1.50;;
62990;SDS011;49084;48.204;16.202;2022-07-10T09:32:21;2.15;;;1.10;;
62990;SDS011;49084;48.204;16.202;2022-07-10T09:34:48;4.28;;;1.10;;
62990;SDS011;49084;48.204;16.202;2022-07-10T09:37:36;2.30;;;0.90;;
62990;SDS011;49084;48.204;16.202;2022-07-10T09:40:08;2.72;;;1.40;;
62990;SDS011;49084;48.204;16.202;2022-07-10T09:42:36;2.60;;;0.95;;
62990;SDS011;49084;48.204;16.202;2022-07-10T09:47:40;2.40;;;1.10;;
62990;SDS011;49084;48.204;16.202;2022-07-10T09:50:20;4.43;;;1.30;;
62990;SDS011;49084;48.204;16.202;2022-07-10T09:52:59;3.08;;;1.23;;
62990;SDS011;49084;48.204;16.202;2022-07-10T09:55:27;2.70;;;1.48;;
62990;SDS011;49084;48.204;16.202;2022-07-10T10:00:28;3.45;;;1.23;;
62990;SDS011;49084;48.204;16.202;2022-07-10T10:02:56;2.05;;;1.00;;
62990;SDS011;49084;48.204;16.202;2022-07-10T10:05:28;2.85;;;0.98;;
62990;SDS011;49084;48.204;16.202;2022-07-10T10:07:56;3.53;;;1.13;;
62990;SDS011;49084;48.204;16.202;2022-07-10T10:10:23;1.27;;;1.10;;
62990;SDS011;49084;48.204;16.202;2022-07-10T10:12:51;3.35;;;1.13;;
62990;SDS011;49084;48.204;16.202;2022-07-10T10:15:19;7.40;;;2.70;;
62990;SDS011;49084;48.204;16.202;2022-07-10T10:17:47;3.15;;;1.30;;
62990;SDS011;49084;48.204;16.202;2022-07-10T10:20:15;5.85;;;1.20;;
62990;SDS011;49084;48.204;16.202;2022-07-10T10:23:00;7.57;;;1.35;;
62990;SDS011;49084;48.204;16.202;2022-07-10T10:25:28;2.30;;;1.65;;
62990;SDS011;49084;48.204;16.202;2022-07-10T10:27:57;3.33;;;1.48;;
62990;SDS011;49084;48.204;16.202;2022-07-10T10:30:24;3.08;;;1.10;;
62990;SDS011;49084;48.204;16.202;2022-07-10T10:32:50;3.10;;;1.70;;
62990;SDS011;49084;48.204;16.202;2022-07-10T10:38:06;6.22;;;1.50;;
62990;SDS011;49084;48.204;16.202;2022-07-10T10:40:32;1.63;;;1.20;;
62990;SDS011;49084;48.204;16.202;2022-07-10T10:43:14;3.33;;;1.60;;
62990;SDS011;49084;48.204;16.202;2022-07-10T10:48:14;2.22;;;1.10;;
62990;SDS011;49084;48.204;16.202;2022-07-10T10:50:46;4.47;;;1.42;;
62990;SDS011;49084;48.204;16.202;2022-07-10T10:55:38;3.45;;;1.50;;
62990;SDS011;49084;48.204;16.202;2022-07-10T10:58:15;5.60;;;1.08;;
62990;SDS011;49084;48.204;16.202;2022-07-10T11:00:49;1.60;;;1.00;;
62990;SDS011;49084;48.204;16.202;2022-07-10T11:03:18;1.95;;;1.17;;
62990;SDS011;49084;48.204;16.202;2022-07-10T11:05:47;3.00;;;1.15;;
62990;SDS011;49084;48.204;16.202;2022-07-10T11:08:13;1.02;;;0.90;;
62990;SDS011;49084;48.204;16.202;2022-07-10T11:10:59;1.70;;;0.70;;
62990;SDS011;49084;48.204;16.202;2022-07-10T11:13:25;3.33;;;0.77;;
62990;SDS011;49084;48.204;16.202;2022-07-10T11:15:55;2.35;;;0.90;;
62990;SDS011;49084;48.204;16.202;2022-07-10T11:18:22;2.88;;;1.00;;
62990;SDS011;49084;48.204;16.202;2022-07-10T11:20:51;4.25;;;1.20;;
62990;SDS011;49084;48.204;16.202;2022-07-10T11:23:29;4.55;;;0.90;;
62990;SDS011;49084;48.204;16.202;2022-07-10T11:28:45;2.40;;;0.82;;
62990;SDS011;49084;48.204;16.202;2022-07-10T11:31:23;1.52;;;1.10;;
62990;SDS011;49084;48.204;16.202;2022-07-10T11:33:51;2.58;;;0.90;;
62990;SDS011;49084;48.204;16.202;2022-07-10T11:36:18;3.40;;;0.90;;
62990;SDS011;49084;48.204;16.202;2022-07-10T11:38:46;4.32;;;1.08;;
62990;SDS011;49084;48.204;16.202;2022-07-10T11:41:16;0.88;;;0.60;;
62990;SDS011;49084;48.204;16.202;2022-07-10T11:43:46;2.65;;;0.55;;
62990;SDS011;49084;48.204;16.202;2022-07-10T11:46:21;2.20;;;0.50;;
62990;SDS011;49084;48.204;16.202;2022-07-10T11:48:48;3.13;;;0.70;;
62990;SDS011;49084;48.204;16.202;2022-07-10T11:51:21;3.33;;;1.40;;
62990;SDS011;49084;48.204;16.202;2022-07-10T11:53:52;2.30;;;0.60;;
62990;SDS011;49084;48.204;16.202;2022-07-10T11:56:19;3.75;;;0.57;;
62990;SDS011;49084;48.204;16.202;2022-07-10T11:58:58;1.42;;;0.60;;
62990;SDS011;49084;48.204;16.202;2022-07-10T12:01:27;3.97;;;0.63;;
62990;SDS011;49084;48.204;16.202;2022-07-10T12:03:58;2.90;;;0.50;;
62990;SDS011;49084;48.204;16.202;2022-07-10T12:06:29;1.58;;;0.30;;
62990;SDS011;49084;48.204;16.202;2022-07-10T12:08:56;1.30;;;0.40;;
62990;SDS011;49084;48.204;16.202;2022-07-10T12:11:30;4.55;;;0.80;;
62990;SDS011;49084;48.204;16.202;2022-07-10T12:14:08;2.42;;;0.52;;
62990;SDS011;49084;48.204;16.202;2022-07-10T12:16:44;5.07;;;0.40;;
62990;SDS011;49084;48.204;16.202;2022-07-10T12:19:14;2.25;;;0.40;;
62990;SDS011;49084;48.204;16.202;2022-07-10T12:21:43;1.37;;;0.40;;
62990;SDS011;49084;48.204;16.202;2022-07-10T12:24:10;2.55;;;0.47;;
62990;SDS011;49084;48.204;16.202;2022-07-10T12:26:38;1.35;;;0.40;;
62990;SDS011;49084;48.204;16.202;2022-07-10T12:29:07;1.20;;;0.63;;
62990;SDS011;49084;48.204;16.202;2022-07-10T12:31:49;1.90;;;0.40;;
62990;SDS011;49084;48.204;16.202;2022-07-10T12:34:16;1.05;;;0.20;;
62990;SDS011;49084;48.204;16.202;2022-07-10T12:39:13;1.13;;;0.20;;
62990;SDS011;49084;48.204;16.202;2022-07-10T12:47:46;1.92;;;0.30;;
62990;SDS011;49084;48.204;16.202;2022-07-10T12:50:13;2.97;;;1.05;;
62990;SDS011;49084;48.204;16.202;2022-07-10T12:52:41;2.53;;;0.20;;
62990;SDS011;49084;48.204;16.202;2022-07-10T12:55:19;1.48;;;0.22;;
62990;SDS011;49084;48.204;16.202;2022-07-10T13:00:23;2.55;;;0.47;;
62990;SDS011;49084;48.204;16.202;2022-07-10T13:03:04;0.47;;;0.17;;
62990;SDS011;49084;48.204;16.202;2022-07-10T13:10:35;3.00;;;0.25;;
62990;SDS011;49084;48.204;16.202;2022-07-10T13:13:01;1.80;;;0.30;;
62990;SDS011;49084;48.204;16.202;2022-07-10T13:15:28;1.35;;;0.15;;
62990;SDS011;49084;48.204;16.202;2022-07-10T13:17:54;2.88;;;0.32;;
62990;SDS011;49084;48.204;16.202;2022-07-10T13:22:48;1.42;;;0.15;;
62990;SDS011;49084;48.204;16.202;2022-07-10T13:25:14;1.15;;;0.17;;
62990;SDS011;49084;48.204;16.202;2022-07-10T13:27:40;1.85;;;0.13;;
62990;SDS011;49084;48.204;16.202;2022-07-10T13:30:07;1.45;;;0.20;;
62990;SDS011;49084;48.204;16.202;2022-07-10T13:32:33;0.55;;;0.10;;
62990;SDS011;49084;48.204;16.202;2022-07-10T13:34:59;1.50;;;0.10;;
62990;SDS011;49084;48.204;16.202;2022-07-10T13:37:25;1.52;;;0.10;;
62990;SDS011;49084;48.204;16.202;2022-07-10T13:39:51;3.80;;;0.32;;
62990;SDS011;49084;48.204;16.202;2022-07-10T13:42:16;0.95;;;0.25;;
62990;SDS011;49084;48.204;16.202;2022-07-10T13:44:42;3.92;;;0.20;;
62990;SDS011;49084;48.204;16.202;2022-07-10T13:47:07;2.42;;;0.28;;
62990;SDS011;49084;48.204;16.202;2022-07-10T13:49:33;2.15;;;0.43;;
62990;SDS011;49084;48.204;16.202;2022-07-10T13:51:59;3.20;;;0.30;;
62990;SDS011;49084;48.204;16.202;2022-07-10T13:54:25;0.68;;;0.10;;
62990;SDS011;49084;48.204;16.202;2022-07-10T13:56:51;0.30;;;0.10;;
62990;SDS011;49084;48.204;16.202;2022-07-10T13:59:17;1.05;;;0.25;;
62990;SDS011;49084;48.204;16.202;2022-07-10T14:01:43;1.40;;;0.20;;
62990;SDS011;49084;48.204;16.202;2022-07-10T14:04:08;1.30;;;0.20;;
62990;SDS011;49084;48.204;16.202;2022-07-10T14:06:34;3.67;;;0.20;;
62990;SDS011;49084;48.204;16.202;2022-07-10T14:09:00;0.82;;;0.40;;
62990;SDS011;49084;48.204;16.202;2022-07-10T14:11:25;0.43;;;0.13;;
62990;SDS011;49084;48.204;16.202;2022-07-10T14:13:51;1.33;;;0.20;;
62990;SDS011;49084;48.204;16.202;2022-07-10T14:16:17;0.40;;;0.15;;
62990;SDS011;49084;48.204;16.202;2022-07-10T14:18:43;1.88;;;0.30;;
62990;SDS011;49084;48.204;16.202;2022-07-10T14:21:09;1.35;;;0.20;;
62990;SDS011;49084;48.204;16.202;2022-07-10T14:23:37;3.35;;;0.20;;
62990;SDS011;49084;48.204;16.202;2022-07-10T14:26:04;0.52;;;0.20;;
62990;SDS011;49084;48.204;16.202;2022-07-10T14:28:31;0.80;;;0.28;;
62990;SDS011;49084;48.204;16.202;2022-07-10T14:30:57;2.30;;;0.32;;
62990;SDS011;49084;48.204;16.202;2022-07-10T14:33:25;1.10;;;0.10;;
62990;SDS011;49084;48.204;16.202;2022-07-10T14:35:51;1.95;;;0.10;;
62990;SDS011;49084;48.204;16.202;2022-07-10T14:38:16;0.43;;;0.25;;
62990;SDS011;49084;48.204;16.202;2022-07-10T14:40:42;1.88;;;0.20;;
62990;SDS011;49084;48.204;16.202;2022-07-10T14:43:08;0.98;;;0.10;;
62990;SDS011;49084;48.204;16.202;2022-07-10T14:45:34;1.27;;;0.13;;
62990;SDS011;49084;48.204;16.202;2022-07-10T14:47:59;1.42;;;0.10;;
62990;SDS011;49084;48.204;16.202;2022-07-10T14:50:25;1.38;;;0.10;;
62990;SDS011;49084;48.204;16.202;2022-07-10T14:52:51;0.55;;;0.20;;
62990;SDS011;49084;48.204;16.202;2022-07-10T14:55:17;0.73;;;0.15;;
62990;SDS011;49084;48.204;16.202;2022-07-10T14:57:43;1.08;;;0.10;;
62990;SDS011;49084;48.204;16.202;2022-07-10T15:00:08;2.90;;;0.30;;
62990;SDS011;49084;48.204;16.202;2022-07-10T15:02:34;4.32;;;0.30;;
62990;SDS011;49084;48.204;16.202;2022-07-10T15:05:00;1.40;;;0.25;;
62990;SDS011;49084;48.204;16.202;2022-07-10T15:07:27;1.42;;;0.10;;